Terminal Aerodrome Forecast
Issued by NWS

Home | Current Version | Previous Version | Text Only | Print | Product List | Glossary On
Versions: 1 2 3 4 5 6 7 8 9 10 11 12
254
FTUS44 KEPZ 120524
TAFDMN
TAF
KDMN 120524Z 1206/1306 VRB04KT P6SM SCT150 BKN200
     FM120700 06008KT P6SM FEW080 SCT150 BKN200
     FM122000 10010G18KT P6SM FEW080 SCT150 BKN200
     FM130200 VRB05KT P6SM FEW150 SCT250=

USA.gov is the U.S. government's official web portal to all federal, state and local government web resources and services.